Погода Сан-Андрес-Истланна неделю

Халиско, Мексика

03 - 09 марта
  • 03марта
    Сегодня
    +10°
    +29°
    Ясно и безоблачно
    ВремяПогодаТемператураВлажностьДавлениеВетер, м/сВероятность осадков
    00:00Облачно с прояснениями+15°C76 %637 мм0.4 м/с2 %
    03:00Ясно и безоблачно+13°C77 %636 мм0.8 м/с2 %
    06:00Ясно и безоблачно+12°C78 %635 мм0.0 м/с2 %
    09:00Ясно и безоблачно+16°C61 %637 мм0.1 м/с2 %
    12:00Ясно и безоблачно+25°C33 %640 мм2.5 м/с2 %
    15:00Ясно и безоблачно+29°C25 %639 мм4.0 м/с2 %
    18:00Ясно и безоблачно+26°C35 %637 мм3.6 м/с2 %
    21:00Ясно и безоблачно+18°C62 %637 мм1.4 м/с2 %
  • 04марта
    Понедельник
    +9°
    +29°
    Ясно и безоблачно
    ВремяПогодаТемператураВлажностьДавлениеВетер, м/сВероятность осадков
    00:00Ясно и безоблачно+15°C72 %636 мм0.5 м/с2 %
    03:00Ясно и безоблачно+13°C74 %634 мм0.2 м/с2 %
    06:00Ясно и безоблачно+11°C71 %633 мм0.0 м/с2 %
    09:00Ясно и безоблачно+15°C47 %636 мм0.0 м/с2 %
    12:00Ясно и безоблачно+25°C25 %638 мм2.7 м/с2 %
    15:00Ясно и безоблачно+29°C23 %637 мм3.8 м/с2 %
    18:00Ясно и безоблачно+26°C34 %637 мм3.5 м/с2 %
    21:00Ясно и безоблачно+18°C65 %636 мм1.3 м/с2 %
  • 05марта
    Вторник
    +10°
    +30°
    Небольшая облачность
    ВремяПогодаТемператураВлажностьДавлениеВетер, м/сВероятность осадков
    00:00Практически безоблачно+16°C70 %636 мм0.6 м/с2 %
    03:00Практически безоблачно+14°C72 %635 мм0.4 м/с2 %
    06:00Ясно и безоблачно+11°C71 %633 мм0.0 м/с2 %
    09:00Практически безоблачно+15°C51 %636 мм0.1 м/с2 %
    12:00Облачно с прояснениями+25°C24 %638 мм1.8 м/с2 %
    15:00Небольшая облачность+30°C18 %637 мм3.4 м/с2 %
    18:00Ясно и безоблачно+26°C30 %636 мм3.5 м/с2 %
    21:00Ясно и безоблачно+18°C67 %635 мм1.4 м/с2 %
  • 06марта
    Среда
    +10°
    +30°
    Практически безоблачно
    ВремяПогодаТемператураВлажностьДавлениеВетер, м/сВероятность осадков
    00:00Облачно с прояснениями+16°C68 %635 мм0.4 м/с2 %
    03:00Ясно и безоблачно+15°C68 %633 мм0.5 м/с2 %
    06:00Ясно и безоблачно+12°C68 %632 мм0.0 м/с2 %
    09:00Ясно и безоблачно+16°C46 %635 мм0.3 м/с2 %
    12:00Практически безоблачно+26°C24 %638 мм2.8 м/с2 %
    15:00Практически безоблачно+30°C21 %637 мм4.4 м/с2 %
    18:00Ясно и безоблачно+26°C41 %636 мм4.1 м/с2 %
    21:00Ясно и безоблачно+19°C67 %636 мм1.6 м/с2 %
  • 07марта
    Четверг
    +10°
    +31°
    Практически безоблачно
    ВремяПогодаТемператураВлажностьДавлениеВетер, м/сВероятность осадков
    00:00Практически безоблачно+15°C71 %635 мм0.7 м/с2 %
    03:00Ясно и безоблачно+13°C68 %634 мм0.5 м/с2 %
    06:00Ясно и безоблачно+11°C63 %632 мм0.0 м/с2 %
    09:00Практически безоблачно+15°C50 %636 мм0.2 м/с2 %
    12:00Ясно и безоблачно+26°C22 %638 мм2.4 м/с2 %
    15:00Практически безоблачно+30°C21 %637 мм4.3 м/с2 %
    18:00Небольшая облачность+27°C38 %636 мм4.2 м/с2 %
    21:00Облачно с прояснениями+18°C70 %636 мм1.8 м/с2 %
Мы используем cookies
Соглашаюсь